sensor_id;sensor_type;location;lat;lon;timestamp;temperature;humidity
12682;DHT22;6405;59.208;18.216;2022-12-29T00:00:52;0.90;99.90
12682;DHT22;6405;59.208;18.216;2022-12-29T00:03:19;0.90;99.90
12682;DHT22;6405;59.208;18.216;2022-12-29T00:05:54;0.90;99.90
12682;DHT22;6405;59.208;18.216;2022-12-29T00:08:20;0.90;99.90
12682;DHT22;6405;59.208;18.216;2022-12-29T00:11:10;0.90;99.90
12682;DHT22;6405;59.208;18.216;2022-12-29T00:13:38;0.90;99.90
12682;DHT22;6405;59.208;18.216;2022-12-29T00:16:24;0.80;99.90
12682;DHT22;6405;59.208;18.216;2022-12-29T00:18:52;0.80;99.90
12682;DHT22;6405;59.208;18.216;2022-12-29T00:21:21;0.80;99.90
12682;DHT22;6405;59.208;18.216;2022-12-29T00:24:11;0.80;99.90
12682;DHT22;6405;59.208;18.216;2022-12-29T00:29:49;0.80;99.90
12682;DHT22;6405;59.208;18.216;2022-12-29T00:32:34;0.80;99.90
12682;DHT22;6405;59.208;18.216;2022-12-29T00:35:29;0.80;99.90
12682;DHT22;6405;59.208;18.216;2022-12-29T00:38:02;0.70;99.90
12682;DHT22;6405;59.208;18.216;2022-12-29T00:40:49;0.70;99.90
12682;DHT22;6405;59.208;18.216;2022-12-29T00:43:36;0.70;99.90
12682;DHT22;6405;59.208;18.216;2022-12-29T00:46:21;0.70;99.90
12682;DHT22;6405;59.208;18.216;2022-12-29T00:48:48;0.70;99.90
12682;DHT22;6405;59.208;18.216;2022-12-29T00:51:32;0.70;99.90
12682;DHT22;6405;59.208;18.216;2022-12-29T00:53:58;0.70;99.90
12682;DHT22;6405;59.208;18.216;2022-12-29T00:56:26;0.70;99.90
12682;DHT22;6405;59.208;18.216;2022-12-29T00:58:51;0.70;99.90
12682;DHT22;6405;59.208;18.216;2022-12-29T01:01:17;0.70;99.90
12682;DHT22;6405;59.208;18.216;2022-12-29T01:03:44;0.70;99.90
12682;DHT22;6405;59.208;18.216;2022-12-29T01:06:11;0.70;99.90
12682;DHT22;6405;59.208;18.216;2022-12-29T01:08:38;0.70;99.90
12682;DHT22;6405;59.208;18.216;2022-12-29T01:11:10;0.70;99.90
12682;DHT22;6405;59.208;18.216;2022-12-29T01:13:37;0.70;99.90
12682;DHT22;6405;59.208;18.216;2022-12-29T01:16:05;0.70;99.90
12682;DHT22;6405;59.208;18.216;2022-12-29T01:18:33;0.70;99.90
12682;DHT22;6405;59.208;18.216;2022-12-29T01:21:05;0.70;99.90
12682;DHT22;6405;59.208;18.216;2022-12-29T01:23:32;0.70;99.90
12682;DHT22;6405;59.208;18.216;2022-12-29T01:26:10;0.70;99.90
12682;DHT22;6405;59.208;18.216;2022-12-29T01:28:37;0.70;99.90
12682;DHT22;6405;59.208;18.216;2022-12-29T01:31:06;0.70;99.90
12682;DHT22;6405;59.208;18.216;2022-12-29T01:33:33;0.80;99.90
12682;DHT22;6405;59.208;18.216;2022-12-29T01:36:02;0.80;99.90
12682;DHT22;6405;59.208;18.216;2022-12-29T01:38:29;0.80;99.90
12682;DHT22;6405;59.208;18.216;2022-12-29T01:40:55;0.80;99.90
12682;DHT22;6405;59.208;18.216;2022-12-29T01:43:20;0.80;99.90
12682;DHT22;6405;59.208;18.216;2022-12-29T01:45:51;0.80;99.90
12682;DHT22;6405;59.208;18.216;2022-12-29T01:48:19;0.90;99.90
12682;DHT22;6405;59.208;18.216;2022-12-29T01:50:53;0.90;99.90
12682;DHT22;6405;59.208;18.216;2022-12-29T01:53:30;0.90;99.90
12682;DHT22;6405;59.208;18.216;2022-12-29T01:56:02;0.90;99.90
12682;DHT22;6405;59.208;18.216;2022-12-29T01:58:32;0.90;99.90
12682;DHT22;6405;59.208;18.216;2022-12-29T02:00:59;0.90;99.90
12682;DHT22;6405;59.208;18.216;2022-12-29T02:03:26;0.90;99.90
12682;DHT22;6405;59.208;18.216;2022-12-29T02:05:57;0.90;99.90
12682;DHT22;6405;59.208;18.216;2022-12-29T02:08:28;1.00;99.90
12682;DHT22;6405;59.208;18.216;2022-12-29T02:10:56;0.90;99.90
12682;DHT22;6405;59.208;18.216;2022-12-29T02:13:25;1.00;99.90
12682;DHT22;6405;59.208;18.216;2022-12-29T02:19:14;1.10;99.90
12682;DHT22;6405;59.208;18.216;2022-12-29T02:33:09;1.10;99.90
12682;DHT22;6405;59.208;18.216;2022-12-29T02:38:36;1.10;99.90
12682;DHT22;6405;59.208;18.216;2022-12-29T02:41:29;1.10;99.90
12682;DHT22;6405;59.208;18.216;2022-12-29T02:44:14;1.10;99.90
12682;DHT22;6405;59.208;18.216;2022-12-29T02:46:53;1.10;99.90
12682;DHT22;6405;59.208;18.216;2022-12-29T02:49:28;1.20;99.90
12682;DHT22;6405;59.208;18.216;2022-12-29T02:52:15;1.20;99.90
12682;DHT22;6405;59.208;18.216;2022-12-29T02:54:42;1.20;99.90
12682;DHT22;6405;59.208;18.216;2022-12-29T03:00:07;1.20;99.90
12682;DHT22;6405;59.208;18.216;2022-12-29T03:08:15;1.20;99.90
12682;DHT22;6405;59.208;18.216;2022-12-29T03:21:46;1.40;99.90
12682;DHT22;6405;59.208;18.216;2022-12-29T03:24:36;1.40;99.90
12682;DHT22;6405;59.208;18.216;2022-12-29T03:27:06;1.40;99.90
12682;DHT22;6405;59.208;18.216;2022-12-29T03:29:45;1.40;99.90
12682;DHT22;6405;59.208;18.216;2022-12-29T03:32:14;1.40;99.90
12682;DHT22;6405;59.208;18.216;2022-12-29T03:34:40;1.40;99.90
12682;DHT22;6405;59.208;18.216;2022-12-29T03:37:11;1.50;99.90
12682;DHT22;6405;59.208;18.216;2022-12-29T03:39:40;1.40;99.90
12682;DHT22;6405;59.208;18.216;2022-12-29T03:42:14;1.50;99.90
12682;DHT22;6405;59.208;18.216;2022-12-29T03:44:44;1.50;99.90
12682;DHT22;6405;59.208;18.216;2022-12-29T03:47:14;1.50;99.90
12682;DHT22;6405;59.208;18.216;2022-12-29T03:49:41;1.40;99.90
12682;DHT22;6405;59.208;18.216;2022-12-29T03:52:09;1.50;99.90
12682;DHT22;6405;59.208;18.216;2022-12-29T03:54:37;1.50;99.90
12682;DHT22;6405;59.208;18.216;2022-12-29T03:57:03;1.50;99.90
12682;DHT22;6405;59.208;18.216;2022-12-29T03:59:31;1.50;99.90
12682;DHT22;6405;59.208;18.216;2022-12-29T04:01:58;1.60;99.90
12682;DHT22;6405;59.208;18.216;2022-12-29T04:04:26;1.60;99.90
12682;DHT22;6405;59.208;18.216;2022-12-29T04:06:52;1.60;99.90
12682;DHT22;6405;59.208;18.216;2022-12-29T04:09:19;1.60;99.90
12682;DHT22;6405;59.208;18.216;2022-12-29T04:11:46;1.60;99.90
12682;DHT22;6405;59.208;18.216;2022-12-29T04:14:13;1.60;99.90
12682;DHT22;6405;59.208;18.216;2022-12-29T04:16:40;1.70;99.90
12682;DHT22;6405;59.208;18.216;2022-12-29T04:19:09;1.70;99.90
12682;DHT22;6405;59.208;18.216;2022-12-29T04:21:35;1.70;99.90
12682;DHT22;6405;59.208;18.216;2022-12-29T04:24:02;1.70;99.90
12682;DHT22;6405;59.208;18.216;2022-12-29T04:26:28;1.70;99.90
12682;DHT22;6405;59.208;18.216;2022-12-29T04:28:56;1.70;99.90
12682;DHT22;6405;59.208;18.216;2022-12-29T04:31:23;1.80;99.90
12682;DHT22;6405;59.208;18.216;2022-12-29T04:33:50;1.80;99.90
12682;DHT22;6405;59.208;18.216;2022-12-29T04:36:17;1.80;99.90
12682;DHT22;6405;59.208;18.216;2022-12-29T04:38:45;1.70;99.90
12682;DHT22;6405;59.208;18.216;2022-12-29T04:41:13;1.70;99.90
12682;DHT22;6405;59.208;18.216;2022-12-29T04:43:40;1.80;99.90
12682;DHT22;6405;59.208;18.216;2022-12-29T04:46:08;1.80;99.90
12682;DHT22;6405;59.208;18.216;2022-12-29T04:48:35;1.90;99.90
12682;DHT22;6405;59.208;18.216;2022-12-29T04:51:02;1.90;99.90
12682;DHT22;6405;59.208;18.216;2022-12-29T04:53:30;2.00;99.90
12682;DHT22;6405;59.208;18.216;2022-12-29T04:55:58;2.00;99.90
12682;DHT22;6405;59.208;18.216;2022-12-29T04:58:25;1.90;99.90
12682;DHT22;6405;59.208;18.216;2022-12-29T05:00:53;2.00;99.90
12682;DHT22;6405;59.208;18.216;2022-12-29T05:03:21;2.00;99.90
12682;DHT22;6405;59.208;18.216;2022-12-29T05:05:47;2.00;99.90
12682;DHT22;6405;59.208;18.216;2022-12-29T05:08:14;2.10;99.90
12682;DHT22;6405;59.208;18.216;2022-12-29T05:10:43;2.10;99.90
12682;DHT22;6405;59.208;18.216;2022-12-29T05:13:09;2.20;99.90
12682;DHT22;6405;59.208;18.216;2022-12-29T05:15:39;2.20;99.90
12682;DHT22;6405;59.208;18.216;2022-12-29T05:18:05;2.10;99.90
12682;DHT22;6405;59.208;18.216;2022-12-29T05:20:33;2.10;99.90
12682;DHT22;6405;59.208;18.216;2022-12-29T05:22:59;2.10;99.90
12682;DHT22;6405;59.208;18.216;2022-12-29T05:25:26;2.20;99.90
12682;DHT22;6405;59.208;18.216;2022-12-29T05:27:52;2.20;99.90
12682;DHT22;6405;59.208;18.216;2022-12-29T05:30:20;2.20;99.90
12682;DHT22;6405;59.208;18.216;2022-12-29T05:32:46;2.20;99.90
12682;DHT22;6405;59.208;18.216;2022-12-29T05:35:13;2.20;99.90
12682;DHT22;6405;59.208;18.216;2022-12-29T05:37:40;2.20;99.90
12682;DHT22;6405;59.208;18.216;2022-12-29T05:40:09;2.20;99.90
12682;DHT22;6405;59.208;18.216;2022-12-29T05:42:35;2.20;99.90
12682;DHT22;6405;59.208;18.216;2022-12-29T05:45:04;2.20;99.90
12682;DHT22;6405;59.208;18.216;2022-12-29T05:47:33;2.20;99.90
12682;DHT22;6405;59.208;18.216;2022-12-29T05:50:01;2.30;99.90
12682;DHT22;6405;59.208;18.216;2022-12-29T05:52:29;2.30;99.90
12682;DHT22;6405;59.208;18.216;2022-12-29T05:54:56;2.30;99.90
12682;DHT22;6405;59.208;18.216;2022-12-29T05:57:23;2.20;99.90
12682;DHT22;6405;59.208;18.216;2022-12-29T05:59:50;2.20;99.90
12682;DHT22;6405;59.208;18.216;2022-12-29T06:02:18;2.20;99.90
12682;DHT22;6405;59.208;18.216;2022-12-29T06:04:45;2.20;99.90
12682;DHT22;6405;59.208;18.216;2022-12-29T06:07:12;2.20;99.90
12682;DHT22;6405;59.208;18.216;2022-12-29T06:09:39;2.20;99.90
12682;DHT22;6405;59.208;18.216;2022-12-29T06:12:06;2.30;99.90
12682;DHT22;6405;59.208;18.216;2022-12-29T06:14:34;2.20;99.90
12682;DHT22;6405;59.208;18.216;2022-12-29T06:17:04;2.30;99.90
12682;DHT22;6405;59.208;18.216;2022-12-29T06:19:31;2.40;99.90
12682;DHT22;6405;59.208;18.216;2022-12-29T06:21:59;2.40;99.90
12682;DHT22;6405;59.208;18.216;2022-12-29T06:24:26;2.50;99.90
12682;DHT22;6405;59.208;18.216;2022-12-29T06:26:54;2.40;99.90
12682;DHT22;6405;59.208;18.216;2022-12-29T06:29:23;2.40;99.90
12682;DHT22;6405;59.208;18.216;2022-12-29T06:31:49;2.50;99.90
12682;DHT22;6405;59.208;18.216;2022-12-29T06:34:19;2.40;99.90
12682;DHT22;6405;59.208;18.216;2022-12-29T06:36:47;2.50;99.90
12682;DHT22;6405;59.208;18.216;2022-12-29T06:39:15;2.50;99.90
12682;DHT22;6405;59.208;18.216;2022-12-29T06:41:41;2.60;99.90
12682;DHT22;6405;59.208;18.216;2022-12-29T06:44:09;2.50;99.90
12682;DHT22;6405;59.208;18.216;2022-12-29T06:46:37;2.60;99.90
12682;DHT22;6405;59.208;18.216;2022-12-29T06:49:04;2.60;99.90
12682;DHT22;6405;59.208;18.216;2022-12-29T06:51:31;2.60;99.90
12682;DHT22;6405;59.208;18.216;2022-12-29T06:53:58;2.50;99.90
12682;DHT22;6405;59.208;18.216;2022-12-29T06:56:26;2.60;99.90
12682;DHT22;6405;59.208;18.216;2022-12-29T06:58:53;2.70;99.90
12682;DHT22;6405;59.208;18.216;2022-12-29T07:01:21;2.80;99.90
12682;DHT22;6405;59.208;18.216;2022-12-29T07:03:48;2.70;99.90
12682;DHT22;6405;59.208;18.216;2022-12-29T07:06:16;2.70;99.90
12682;DHT22;6405;59.208;18.216;2022-12-29T07:08:43;2.70;99.90
12682;DHT22;6405;59.208;18.216;2022-12-29T07:11:10;2.70;99.90
12682;DHT22;6405;59.208;18.216;2022-12-29T07:13:37;2.80;99.90
12682;DHT22;6405;59.208;18.216;2022-12-29T07:16:06;2.70;99.90
12682;DHT22;6405;59.208;18.216;2022-12-29T07:18:35;2.70;99.90
12682;DHT22;6405;59.208;18.216;2022-12-29T07:21:03;2.70;99.90
12682;DHT22;6405;59.208;18.216;2022-12-29T07:23:30;2.70;99.90
12682;DHT22;6405;59.208;18.216;2022-12-29T07:26:05;2.70;99.90
12682;DHT22;6405;59.208;18.216;2022-12-29T07:28:33;2.60;99.90
12682;DHT22;6405;59.208;18.216;2022-12-29T07:31:02;2.70;99.90
12682;DHT22;6405;59.208;18.216;2022-12-29T07:33:29;2.70;99.90
12682;DHT22;6405;59.208;18.216;2022-12-29T07:35:59;2.70;99.90
12682;DHT22;6405;59.208;18.216;2022-12-29T07:38:26;2.60;99.90
12682;DHT22;6405;59.208;18.216;2022-12-29T07:40:58;2.70;99.90
12682;DHT22;6405;59.208;18.216;2022-12-29T07:43:27;2.60;99.90
12682;DHT22;6405;59.208;18.216;2022-12-29T07:45:55;2.60;99.90
12682;DHT22;6405;59.208;18.216;2022-12-29T07:48:22;2.60;99.90
12682;DHT22;6405;59.208;18.216;2022-12-29T07:50:48;2.70;99.90
12682;DHT22;6405;59.208;18.216;2022-12-29T07:53:16;2.70;99.90
12682;DHT22;6405;59.208;18.216;2022-12-29T07:55:43;2.70;99.90
12682;DHT22;6405;59.208;18.216;2022-12-29T07:58:10;2.80;99.90
12682;DHT22;6405;59.208;18.216;2022-12-29T08:00:38;2.80;99.90
12682;DHT22;6405;59.208;18.216;2022-12-29T08:03:05;2.80;99.90
12682;DHT22;6405;59.208;18.216;2022-12-29T08:05:33;2.80;99.90
12682;DHT22;6405;59.208;18.216;2022-12-29T08:08:01;2.70;99.90
12682;DHT22;6405;59.208;18.216;2022-12-29T08:10:28;2.80;99.90
12682;DHT22;6405;59.208;18.216;2022-12-29T08:12:56;2.80;99.90
12682;DHT22;6405;59.208;18.216;2022-12-29T08:15:23;2.70;99.90
12682;DHT22;6405;59.208;18.216;2022-12-29T08:17:51;2.70;99.90
12682;DHT22;6405;59.208;18.216;2022-12-29T08:20:18;2.70;99.90
12682;DHT22;6405;59.208;18.216;2022-12-29T08:22:44;2.70;99.90
12682;DHT22;6405;59.208;18.216;2022-12-29T08:25:12;2.80;99.90
12682;DHT22;6405;59.208;18.216;2022-12-29T08:27:39;2.90;99.90
12682;DHT22;6405;59.208;18.216;2022-12-29T08:30:08;2.80;99.90
12682;DHT22;6405;59.208;18.216;2022-12-29T08:32:36;2.90;99.90
12682;DHT22;6405;59.208;18.216;2022-12-29T08:35:04;2.90;99.90
12682;DHT22;6405;59.208;18.216;2022-12-29T08:37:32;2.80;99.90
12682;DHT22;6405;59.208;18.216;2022-12-29T08:40:00;2.80;99.90
12682;DHT22;6405;59.208;18.216;2022-12-29T08:42:33;2.80;99.90
12682;DHT22;6405;59.208;18.216;2022-12-29T08:45:00;2.80;99.90
12682;DHT22;6405;59.208;18.216;2022-12-29T08:47:28;2.90;99.90
12682;DHT22;6405;59.208;18.216;2022-12-29T08:49:56;2.90;99.90
12682;DHT22;6405;59.208;18.216;2022-12-29T08:52:23;2.90;99.90
12682;DHT22;6405;59.208;18.216;2022-12-29T08:54:50;3.00;99.90
12682;DHT22;6405;59.208;18.216;2022-12-29T08:57:18;2.90;99.90
12682;DHT22;6405;59.208;18.216;2022-12-29T08:59:46;2.90;99.90
12682;DHT22;6405;59.208;18.216;2022-12-29T09:02:13;2.90;99.90
12682;DHT22;6405;59.208;18.216;2022-12-29T09:04:40;2.90;99.90
12682;DHT22;6405;59.208;18.216;2022-12-29T09:07:07;3.20;99.90
12682;DHT22;6405;59.208;18.216;2022-12-29T09:09:34;3.10;99.90
12682;DHT22;6405;59.208;18.216;2022-12-29T09:12:02;3.10;99.90
12682;DHT22;6405;59.208;18.216;2022-12-29T09:14:31;3.10;99.90
12682;DHT22;6405;59.208;18.216;2022-12-29T09:16:57;3.10;99.90
12682;DHT22;6405;59.208;18.216;2022-12-29T09:19:43;3.20;99.90
12682;DHT22;6405;59.208;18.216;2022-12-29T09:22:12;3.20;99.90
12682;DHT22;6405;59.208;18.216;2022-12-29T09:24:39;3.20;99.90
12682;DHT22;6405;59.208;18.216;2022-12-29T09:27:06;3.20;99.90
12682;DHT22;6405;59.208;18.216;2022-12-29T09:29:33;3.20;99.90
12682;DHT22;6405;59.208;18.216;2022-12-29T09:32:00;3.30;99.90
12682;DHT22;6405;59.208;18.216;2022-12-29T09:34:28;3.30;99.90
12682;DHT22;6405;59.208;18.216;2022-12-29T09:36:54;3.40;99.90
12682;DHT22;6405;59.208;18.216;2022-12-29T09:39:23;3.40;99.90
12682;DHT22;6405;59.208;18.216;2022-12-29T09:45:14;3.40;99.90
12682;DHT22;6405;59.208;18.216;2022-12-29T09:47:43;3.40;99.90
12682;DHT22;6405;59.208;18.216;2022-12-29T09:50:24;3.50;99.90
12682;DHT22;6405;59.208;18.216;2022-12-29T09:53:27;3.40;99.90
12682;DHT22;6405;59.208;18.216;2022-12-29T09:55:59;3.40;99.90
12682;DHT22;6405;59.208;18.216;2022-12-29T09:58:30;3.40;99.90
12682;DHT22;6405;59.208;18.216;2022-12-29T10:01:36;3.50;99.90
12682;DHT22;6405;59.208;18.216;2022-12-29T10:04:05;3.50;99.90
12682;DHT22;6405;59.208;18.216;2022-12-29T10:07:10;3.50;99.90
12682;DHT22;6405;59.208;18.216;2022-12-29T10:09:47;3.50;99.90
12682;DHT22;6405;59.208;18.216;2022-12-29T10:20:56;3.60;99.90
12682;DHT22;6405;59.208;18.216;2022-12-29T10:23:28;3.60;99.90
12682;DHT22;6405;59.208;18.216;2022-12-29T10:25:58;3.60;99.90
12682;DHT22;6405;59.208;18.216;2022-12-29T10:31:01;3.60;99.90
12682;DHT22;6405;59.208;18.216;2022-12-29T10:33:35;3.60;99.90
12682;DHT22;6405;59.208;18.216;2022-12-29T10:36:12;3.60;99.90
12682;DHT22;6405;59.208;18.216;2022-12-29T10:38:48;3.70;99.90
12682;DHT22;6405;59.208;18.216;2022-12-29T10:41:21;3.80;99.90
12682;DHT22;6405;59.208;18.216;2022-12-29T10:43:54;3.70;99.90
12682;DHT22;6405;59.208;18.216;2022-12-29T10:46:27;3.70;99.90
12682;DHT22;6405;59.208;18.216;2022-12-29T10:48:55;3.70;99.90
12682;DHT22;6405;59.208;18.216;2022-12-29T10:51:26;3.80;99.90
12682;DHT22;6405;59.208;18.216;2022-12-29T10:54:23;3.80;99.90
12682;DHT22;6405;59.208;18.216;2022-12-29T10:56:56;3.80;99.90
12682;DHT22;6405;59.208;18.216;2022-12-29T10:59:32;3.70;99.90
12682;DHT22;6405;59.208;18.216;2022-12-29T11:07:07;3.90;99.90
12682;DHT22;6405;59.208;18.216;2022-12-29T11:09:38;3.90;99.90
12682;DHT22;6405;59.208;18.216;2022-12-29T11:14:50;3.90;99.90
12682;DHT22;6405;59.208;18.216;2022-12-29T11:17:26;3.90;99.90
12682;DHT22;6405;59.208;18.216;2022-12-29T11:19:53;4.00;99.90
12682;DHT22;6405;59.208;18.216;2022-12-29T11:22:27;3.90;99.90
12682;DHT22;6405;59.208;18.216;2022-12-29T11:25:04;3.90;99.90
12682;DHT22;6405;59.208;18.216;2022-12-29T11:27:32;3.90;99.90
12682;DHT22;6405;59.208;18.216;2022-12-29T11:29:58;3.90;99.90
12682;DHT22;6405;59.208;18.216;2022-12-29T11:32:27;3.90;99.90
12682;DHT22;6405;59.208;18.216;2022-12-29T11:34:57;3.90;99.90
12682;DHT22;6405;59.208;18.216;2022-12-29T11:37:48;3.90;99.90
12682;DHT22;6405;59.208;18.216;2022-12-29T11:40:20;3.80;99.90
12682;DHT22;6405;59.208;18.216;2022-12-29T11:42:51;3.90;99.90
12682;DHT22;6405;59.208;18.216;2022-12-29T11:45:22;3.80;99.90
12682;DHT22;6405;59.208;18.216;2022-12-29T11:50:35;3.80;99.90
12682;DHT22;6405;59.208;18.216;2022-12-29T11:53:16;3.80;99.90
12682;DHT22;6405;59.208;18.216;2022-12-29T11:55:55;3.90;99.90
12682;DHT22;6405;59.208;18.216;2022-12-29T11:58:29;3.90;99.90
12682;DHT22;6405;59.208;18.216;2022-12-29T12:00:56;3.90;99.90
12682;DHT22;6405;59.208;18.216;2022-12-29T12:03:24;3.90;99.90
12682;DHT22;6405;59.208;18.216;2022-12-29T12:05:56;3.90;99.90
12682;DHT22;6405;59.208;18.216;2022-12-29T12:11:38;3.90;99.90
12682;DHT22;6405;59.208;18.216;2022-12-29T12:16:46;3.80;99.90
12682;DHT22;6405;59.208;18.216;2022-12-29T12:19:34;3.90;99.90
12682;DHT22;6405;59.208;18.216;2022-12-29T12:22:25;3.90;99.90
12682;DHT22;6405;59.208;18.216;2022-12-29T12:24:59;4.00;99.90
12682;DHT22;6405;59.208;18.216;2022-12-29T12:27:51;4.00;99.90
12682;DHT22;6405;59.208;18.216;2022-12-29T12:30:20;3.90;99.90
12682;DHT22;6405;59.208;18.216;2022-12-29T12:41:00;4.10;99.90
12682;DHT22;6405;59.208;18.216;2022-12-29T12:43:36;4.00;99.90
12682;DHT22;6405;59.208;18.216;2022-12-29T12:58:32;4.00;99.90
12682;DHT22;6405;59.208;18.216;2022-12-29T13:03:59;4.10;99.90
12682;DHT22;6405;59.208;18.216;2022-12-29T13:07:20;4.00;99.90
12682;DHT22;6405;59.208;18.216;2022-12-29T13:20:42;4.10;99.90
12682;DHT22;6405;59.208;18.216;2022-12-29T13:26:13;4.00;99.90
12682;DHT22;6405;59.208;18.216;2022-12-29T13:28:52;4.00;99.90
12682;DHT22;6405;59.208;18.216;2022-12-29T13:34:23;4.00;99.90
12682;DHT22;6405;59.208;18.216;2022-12-29T13:36:55;4.10;99.90
12682;DHT22;6405;59.208;18.216;2022-12-29T13:39:33;4.20;99.90
12682;DHT22;6405;59.208;18.216;2022-12-29T13:42:02;4.20;99.90
12682;DHT22;6405;59.208;18.216;2022-12-29T13:47:06;4.10;99.90
12682;DHT22;6405;59.208;18.216;2022-12-29T13:49:38;4.20;99.90
12682;DHT22;6405;59.208;18.216;2022-12-29T13:52:18;4.10;99.90
12682;DHT22;6405;59.208;18.216;2022-12-29T13:54:57;4.20;99.90
12682;DHT22;6405;59.208;18.216;2022-12-29T13:57:44;4.20;99.90
12682;DHT22;6405;59.208;18.216;2022-12-29T14:00:22;4.10;99.90
12682;DHT22;6405;59.208;18.216;2022-12-29T14:03:20;4.20;99.90
12682;DHT22;6405;59.208;18.216;2022-12-29T14:06:11;4.20;99.90
12682;DHT22;6405;59.208;18.216;2022-12-29T14:08:39;4.30;99.90
12682;DHT22;6405;59.208;18.216;2022-12-29T14:11:10;4.40;99.90
12682;DHT22;6405;59.208;18.216;2022-12-29T14:13:40;4.40;99.90
12682;DHT22;6405;59.208;18.216;2022-12-29T14:18:56;4.40;99.90
12682;DHT22;6405;59.208;18.216;2022-12-29T14:21:29;4.40;99.90
12682;DHT22;6405;59.208;18.216;2022-12-29T14:26:53;4.40;99.90
12682;DHT22;6405;59.208;18.216;2022-12-29T14:31:52;4.40;99.90
12682;DHT22;6405;59.208;18.216;2022-12-29T14:37:01;4.40;99.90
12682;DHT22;6405;59.208;18.216;2022-12-29T14:39:41;4.50;99.90
12682;DHT22;6405;59.208;18.216;2022-12-29T14:47:22;4.50;99.90
12682;DHT22;6405;59.208;18.216;2022-12-29T14:49:54;4.50;99.90
12682;DHT22;6405;59.208;18.216;2022-12-29T14:52:24;4.40;99.90
12682;DHT22;6405;59.208;18.216;2022-12-29T14:54:57;4.40;99.90
12682;DHT22;6405;59.208;18.216;2022-12-29T15:00:03;4.40;99.90
12682;DHT22;6405;59.208;18.216;2022-12-29T15:02:36;4.50;99.90
12682;DHT22;6405;59.208;18.216;2022-12-29T15:05:23;4.50;99.90
12682;DHT22;6405;59.208;18.216;2022-12-29T15:07:50;4.50;99.90
12682;DHT22;6405;59.208;18.216;2022-12-29T15:10:18;4.50;99.90
12682;DHT22;6405;59.208;18.216;2022-12-29T15:12:51;4.50;99.90
12682;DHT22;6405;59.208;18.216;2022-12-29T15:15:26;4.40;99.90
12682;DHT22;6405;59.208;18.216;2022-12-29T15:17:54;4.40;99.90
12682;DHT22;6405;59.208;18.216;2022-12-29T15:20:39;4.40;99.90
12682;DHT22;6405;59.208;18.216;2022-12-29T15:23:12;4.40;99.90
12682;DHT22;6405;59.208;18.216;2022-12-29T15:25:52;4.40;99.90
12682;DHT22;6405;59.208;18.216;2022-12-29T15:28:20;4.50;99.90
12682;DHT22;6405;59.208;18.216;2022-12-29T15:30:57;4.40;99.90
12682;DHT22;6405;59.208;18.216;2022-12-29T15:33:29;4.40;99.90
12682;DHT22;6405;59.208;18.216;2022-12-29T15:35:57;4.50;99.90
12682;DHT22;6405;59.208;18.216;2022-12-29T15:38:30;4.50;99.90
12682;DHT22;6405;59.208;18.216;2022-12-29T15:41:04;4.50;99.90
12682;DHT22;6405;59.208;18.216;2022-12-29T15:46:22;4.40;99.90
12682;DHT22;6405;59.208;18.216;2022-12-29T15:48:49;4.40;99.90
12682;DHT22;6405;59.208;18.216;2022-12-29T15:51:20;4.50;99.90
12682;DHT22;6405;59.208;18.216;2022-12-29T15:53:51;4.50;99.90
12682;DHT22;6405;59.208;18.216;2022-12-29T15:56:19;4.50;99.90
12682;DHT22;6405;59.208;18.216;2022-12-29T15:58:48;4.60;99.90
12682;DHT22;6405;59.208;18.216;2022-12-29T16:01:18;4.60;99.90
12682;DHT22;6405;59.208;18.216;2022-12-29T16:03:45;4.60;99.90
12682;DHT22;6405;59.208;18.216;2022-12-29T16:06:34;4.60;99.90
12682;DHT22;6405;59.208;18.216;2022-12-29T16:09:12;4.60;99.90
12682;DHT22;6405;59.208;18.216;2022-12-29T16:11:43;4.70;99.90
12682;DHT22;6405;59.208;18.216;2022-12-29T16:14:33;4.70;99.90
12682;DHT22;6405;59.208;18.216;2022-12-29T16:17:03;4.60;99.90
12682;DHT22;6405;59.208;18.216;2022-12-29T16:19:39;4.70;99.90
12682;DHT22;6405;59.208;18.216;2022-12-29T16:22:17;4.70;99.90
12682;DHT22;6405;59.208;18.216;2022-12-29T16:24:43;4.70;99.90
12682;DHT22;6405;59.208;18.216;2022-12-29T16:29:43;4.60;99.90
12682;DHT22;6405;59.208;18.216;2022-12-29T16:32:28;4.70;99.90
12682;DHT22;6405;59.208;18.216;2022-12-29T16:35:13;4.60;99.90
12682;DHT22;6405;59.208;18.216;2022-12-29T16:37:40;4.60;99.90
12682;DHT22;6405;59.208;18.216;2022-12-29T16:40:30;4.60;99.90
12682;DHT22;6405;59.208;18.216;2022-12-29T16:43:01;4.60;99.90
12682;DHT22;6405;59.208;18.216;2022-12-29T16:48:23;4.60;99.90
12682;DHT22;6405;59.208;18.216;2022-12-29T16:51:01;4.60;99.90
12682;DHT22;6405;59.208;18.216;2022-12-29T16:53:35;4.60;99.90
12682;DHT22;6405;59.208;18.216;2022-12-29T16:56:17;4.60;99.90
12682;DHT22;6405;59.208;18.216;2022-12-29T16:58:49;4.60;99.90
12682;DHT22;6405;59.208;18.216;2022-12-29T17:01:17;4.60;99.90
12682;DHT22;6405;59.208;18.216;2022-12-29T17:03:53;4.60;99.90
12682;DHT22;6405;59.208;18.216;2022-12-29T17:06:21;4.60;99.90
12682;DHT22;6405;59.208;18.216;2022-12-29T17:08:48;4.60;99.90
12682;DHT22;6405;59.208;18.216;2022-12-29T17:16:52;4.70;99.90
12682;DHT22;6405;59.208;18.216;2022-12-29T17:19:26;4.70;99.90
12682;DHT22;6405;59.208;18.216;2022-12-29T17:21:54;4.70;99.90
12682;DHT22;6405;59.208;18.216;2022-12-29T17:24:20;4.70;99.90
12682;DHT22;6405;59.208;18.216;2022-12-29T17:26:51;4.70;99.90
12682;DHT22;6405;59.208;18.216;2022-12-29T17:29:30;4.70;99.90
12682;DHT22;6405;59.208;18.216;2022-12-29T17:31:57;4.70;99.90
12682;DHT22;6405;59.208;18.216;2022-12-29T17:34:25;4.80;99.90
12682;DHT22;6405;59.208;18.216;2022-12-29T17:36:52;4.80;99.90
12682;DHT22;6405;59.208;18.216;2022-12-29T17:39:20;4.90;99.90
12682;DHT22;6405;59.208;18.216;2022-12-29T17:41:48;4.90;99.90
12682;DHT22;6405;59.208;18.216;2022-12-29T17:44:19;4.90;99.90
12682;DHT22;6405;59.208;18.216;2022-12-29T17:46:47;4.90;99.90
12682;DHT22;6405;59.208;18.216;2022-12-29T17:49:17;4.90;99.90
12682;DHT22;6405;59.208;18.216;2022-12-29T17:51:45;4.80;99.90
12682;DHT22;6405;59.208;18.216;2022-12-29T17:54:21;4.90;99.90
12682;DHT22;6405;59.208;18.216;2022-12-29T17:56:51;4.80;99.90
12682;DHT22;6405;59.208;18.216;2022-12-29T17:59:18;4.80;99.90
12682;DHT22;6405;59.208;18.216;2022-12-29T18:01:45;4.80;99.90
12682;DHT22;6405;59.208;18.216;2022-12-29T18:04:13;4.80;99.90
12682;DHT22;6405;59.208;18.216;2022-12-29T18:06:41;4.80;99.90
12682;DHT22;6405;59.208;18.216;2022-12-29T18:09:07;4.70;99.90
12682;DHT22;6405;59.208;18.216;2022-12-29T18:11:41;4.70;99.90
12682;DHT22;6405;59.208;18.216;2022-12-29T18:14:16;4.80;99.90
12682;DHT22;6405;59.208;18.216;2022-12-29T18:16:43;4.80;99.90
12682;DHT22;6405;59.208;18.216;2022-12-29T18:19:10;4.80;99.90
12682;DHT22;6405;59.208;18.216;2022-12-29T18:21:38;4.80;99.90
12682;DHT22;6405;59.208;18.216;2022-12-29T18:24:12;4.80;99.90
12682;DHT22;6405;59.208;18.216;2022-12-29T18:26:38;4.80;99.90
12682;DHT22;6405;59.208;18.216;2022-12-29T18:29:05;4.80;99.90
12682;DHT22;6405;59.208;18.216;2022-12-29T18:31:33;4.80;99.90
12682;DHT22;6405;59.208;18.216;2022-12-29T18:34:01;4.90;99.90
12682;DHT22;6405;59.208;18.216;2022-12-29T18:36:29;5.00;99.90